KSJC

Norman Y Mineta San Jose International Airport

San Jose, California, USA
METAR KSJC 160053Z 22006KT 10SM FEW035 SCT055 BKN080 16/08 A3004 RMK AO2 SLP173 T01610078
Observed Flight Rules
Dec-16 @ 00:53 UTC (22 minutes ago) Visual Flight Rules
Wind Visibility Clouds
220° at 6 knots 10 miles
  • Few at 3,500' AGL
  • Scattered at 5,500' AGL
  • Broken at 8,000' AGL
Temperatures Readings
Current 16°C / 61°F
Dewpoint 8°C / 46°F
Humidity 59%
Altimeter 30.04" Hg
Pressure 1017.3 hPa
Elevation 24
METAR KSJC 160053Z 22006KT 10SM FEW035 SCT055 BKN080 16/08 A3004 RMK AO2 SLP173 T01610078
Observed Flight Rules
Dec-16 @ 00:53 UTC
(22 minutes ago)
VFR
Wind Visibility
220° at 6 knots 10 miles
Clouds
  • Few at 3,500' AGL
  • Scattered at 5,500' AGL
  • Broken at 8,000' AGL
Temperature Dewpoint
16°C / 61°F 8°C / 46°F
Humidity Altimeter Pressure
59% 30.04" Hg 1017.3 hPa